sensor_id;sensor_type;location;lat;lon;timestamp;P1;durP1;ratioP1;P2;durP2;ratioP2
77136;SDS011;66102;48.542;-2.970;2023-06-10T00:01:22;36.45;;;19.55;;
77136;SDS011;66102;48.542;-2.970;2023-06-10T00:03:49;38.58;;;21.75;;
77136;SDS011;66102;48.542;-2.970;2023-06-10T00:06:17;32.45;;;19.25;;
77136;SDS011;66102;48.542;-2.970;2023-06-10T00:08:43;31.20;;;18.23;;
77136;SDS011;66102;48.542;-2.970;2023-06-10T00:11:09;36.92;;;20.23;;
77136;SDS011;66102;48.542;-2.970;2023-06-10T00:13:35;32.83;;;20.83;;
77136;SDS011;66102;48.542;-2.970;2023-06-10T00:16:02;32.53;;;18.25;;
77136;SDS011;66102;48.542;-2.970;2023-06-10T00:18:28;31.17;;;19.08;;
77136;SDS011;66102;48.542;-2.970;2023-06-10T00:20:56;30.35;;;18.15;;
77136;SDS011;66102;48.542;-2.970;2023-06-10T00:23:28;34.35;;;17.60;;
77136;SDS011;66102;48.542;-2.970;2023-06-10T00:25:56;29.17;;;15.57;;
77136;SDS011;66102;48.542;-2.970;2023-06-10T00:28:22;23.45;;;14.40;;
77136;SDS011;66102;48.542;-2.970;2023-06-10T00:30:48;26.05;;;16.30;;
77136;SDS011;66102;48.542;-2.970;2023-06-10T00:33:14;32.15;;;17.08;;
77136;SDS011;66102;48.542;-2.970;2023-06-10T00:35:40;30.95;;;17.98;;
77136;SDS011;66102;48.542;-2.970;2023-06-10T00:38:06;30.20;;;17.83;;
77136;SDS011;66102;48.542;-2.970;2023-06-10T00:40:33;31.75;;;19.50;;
77136;SDS011;66102;48.542;-2.970;2023-06-10T00:42:59;35.22;;;20.10;;
77136;SDS011;66102;48.542;-2.970;2023-06-10T00:45:25;32.85;;;19.10;;
77136;SDS011;66102;48.542;-2.970;2023-06-10T00:47:51;29.92;;;17.23;;
77136;SDS011;66102;48.542;-2.970;2023-06-10T00:50:17;27.55;;;14.05;;
77136;SDS011;66102;48.542;-2.970;2023-06-10T00:52:44;27.08;;;16.42;;
77136;SDS011;66102;48.542;-2.970;2023-06-10T00:55:13;27.60;;;15.63;;
77136;SDS011;66102;48.542;-2.970;2023-06-10T00:57:39;30.73;;;16.70;;
77136;SDS011;66102;48.542;-2.970;2023-06-10T01:00:05;26.85;;;16.80;;
77136;SDS011;66102;48.542;-2.970;2023-06-10T01:02:33;34.00;;;17.85;;
77136;SDS011;66102;48.542;-2.970;2023-06-10T01:04:59;25.05;;;14.75;;
77136;SDS011;66102;48.542;-2.970;2023-06-10T01:07:50;25.90;;;14.30;;
77136;SDS011;66102;48.542;-2.970;2023-06-10T01:10:17;27.63;;;15.63;;
77136;SDS011;66102;48.542;-2.970;2023-06-10T01:12:59;32.17;;;18.60;;
77136;SDS011;66102;48.542;-2.970;2023-06-10T01:15:28;36.20;;;22.05;;
77136;SDS011;66102;48.542;-2.970;2023-06-10T01:18:04;42.33;;;21.85;;
77136;SDS011;66102;48.542;-2.970;2023-06-10T01:20:33;38.35;;;21.52;;
77136;SDS011;66102;48.542;-2.970;2023-06-10T01:23:02;38.72;;;24.02;;
77136;SDS011;66102;48.542;-2.970;2023-06-10T01:25:29;32.10;;;20.08;;
77136;SDS011;66102;48.542;-2.970;2023-06-10T01:33:29;32.25;;;17.80;;
77136;SDS011;66102;48.542;-2.970;2023-06-10T01:35:59;31.63;;;19.20;;
77136;SDS011;66102;48.542;-2.970;2023-06-10T01:38:26;31.83;;;18.00;;
77136;SDS011;66102;48.542;-2.970;2023-06-10T01:40:53;30.40;;;18.15;;
77136;SDS011;66102;48.542;-2.970;2023-06-10T01:43:21;32.70;;;17.88;;
77136;SDS011;66102;48.542;-2.970;2023-06-10T01:45:47;29.55;;;17.33;;
77136;SDS011;66102;48.542;-2.970;2023-06-10T01:48:13;29.05;;;16.95;;
77136;SDS011;66102;48.542;-2.970;2023-06-10T01:50:39;29.38;;;16.88;;
77136;SDS011;66102;48.542;-2.970;2023-06-10T01:53:05;31.83;;;16.45;;
77136;SDS011;66102;48.542;-2.970;2023-06-10T01:55:31;27.92;;;15.05;;
77136;SDS011;66102;48.542;-2.970;2023-06-10T01:57:57;31.17;;;16.13;;
77136;SDS011;66102;48.542;-2.970;2023-06-10T02:00:23;28.95;;;17.33;;
77136;SDS011;66102;48.542;-2.970;2023-06-10T02:02:49;29.80;;;17.30;;
77136;SDS011;66102;48.542;-2.970;2023-06-10T02:05:15;28.05;;;16.95;;
77136;SDS011;66102;48.542;-2.970;2023-06-10T02:07:41;31.05;;;17.10;;
77136;SDS011;66102;48.542;-2.970;2023-06-10T02:10:07;30.00;;;16.80;;
77136;SDS011;66102;48.542;-2.970;2023-06-10T02:12:34;28.90;;;16.42;;
77136;SDS011;66102;48.542;-2.970;2023-06-10T02:15:00;27.52;;;15.68;;
77136;SDS011;66102;48.542;-2.970;2023-06-10T02:17:26;26.20;;;15.05;;
77136;SDS011;66102;48.542;-2.970;2023-06-10T02:19:52;29.25;;;14.82;;
77136;SDS011;66102;48.542;-2.970;2023-06-10T02:22:19;29.95;;;16.83;;
77136;SDS011;66102;48.542;-2.970;2023-06-10T02:24:45;25.48;;;15.45;;
77136;SDS011;66102;48.542;-2.970;2023-06-10T02:27:12;26.30;;;15.98;;
77136;SDS011;66102;48.542;-2.970;2023-06-10T02:29:38;27.20;;;15.93;;
77136;SDS011;66102;48.542;-2.970;2023-06-10T02:32:04;25.55;;;14.32;;
77136;SDS011;66102;48.542;-2.970;2023-06-10T02:34:30;20.77;;;12.85;;
77136;SDS011;66102;48.542;-2.970;2023-06-10T02:36:56;28.45;;;14.43;;
77136;SDS011;66102;48.542;-2.970;2023-06-10T02:39:22;24.75;;;14.75;;
77136;SDS011;66102;48.542;-2.970;2023-06-10T02:41:48;25.58;;;14.90;;
77136;SDS011;66102;48.542;-2.970;2023-06-10T02:44:14;29.10;;;15.32;;
77136;SDS011;66102;48.542;-2.970;2023-06-10T02:46:40;24.25;;;14.13;;
77136;SDS011;66102;48.542;-2.970;2023-06-10T02:49:06;23.63;;;14.10;;
77136;SDS011;66102;48.542;-2.970;2023-06-10T02:51:32;24.83;;;14.75;;
77136;SDS011;66102;48.542;-2.970;2023-06-10T02:53:58;24.02;;;14.63;;
77136;SDS011;66102;48.542;-2.970;2023-06-10T02:56:24;25.15;;;14.60;;
77136;SDS011;66102;48.542;-2.970;2023-06-10T02:58:50;24.77;;;13.38;;
77136;SDS011;66102;48.542;-2.970;2023-06-10T03:01:17;24.25;;;13.40;;
77136;SDS011;66102;48.542;-2.970;2023-06-10T03:03:44;24.88;;;13.73;;
77136;SDS011;66102;48.542;-2.970;2023-06-10T03:06:11;25.85;;;13.80;;
77136;SDS011;66102;48.542;-2.970;2023-06-10T03:08:38;25.55;;;14.15;;
77136;SDS011;66102;48.542;-2.970;2023-06-10T03:11:05;23.55;;;14.50;;
77136;SDS011;66102;48.542;-2.970;2023-06-10T03:13:31;25.95;;;13.27;;
77136;SDS011;66102;48.542;-2.970;2023-06-10T03:15:57;23.75;;;14.23;;
77136;SDS011;66102;48.542;-2.970;2023-06-10T03:18:25;24.23;;;13.38;;
77136;SDS011;66102;48.542;-2.970;2023-06-10T03:20:51;27.58;;;14.77;;
77136;SDS011;66102;48.542;-2.970;2023-06-10T03:23:17;19.48;;;12.65;;
77136;SDS011;66102;48.542;-2.970;2023-06-10T03:25:44;18.00;;;12.65;;
77136;SDS011;66102;48.542;-2.970;2023-06-10T03:28:10;19.90;;;12.52;;
77136;SDS011;66102;48.542;-2.970;2023-06-10T03:30:37;16.63;;;11.23;;
77136;SDS011;66102;48.542;-2.970;2023-06-10T03:33:03;15.95;;;9.93;;
77136;SDS011;66102;48.542;-2.970;2023-06-10T03:35:29;15.73;;;10.95;;
77136;SDS011;66102;48.542;-2.970;2023-06-10T03:37:56;18.75;;;11.55;;
77136;SDS011;66102;48.542;-2.970;2023-06-10T03:40:22;15.48;;;10.15;;
77136;SDS011;66102;48.542;-2.970;2023-06-10T03:42:48;16.60;;;10.50;;
77136;SDS011;66102;48.542;-2.970;2023-06-10T03:45:14;17.15;;;9.85;;
77136;SDS011;66102;48.542;-2.970;2023-06-10T03:47:40;15.23;;;10.05;;
77136;SDS011;66102;48.542;-2.970;2023-06-10T03:50:08;16.90;;;10.13;;
77136;SDS011;66102;48.542;-2.970;2023-06-10T03:52:37;18.55;;;10.02;;
77136;SDS011;66102;48.542;-2.970;2023-06-10T03:55:04;13.68;;;9.05;;
77136;SDS011;66102;48.542;-2.970;2023-06-10T03:57:31;15.23;;;9.65;;
77136;SDS011;66102;48.542;-2.970;2023-06-10T03:59:57;16.60;;;10.68;;
77136;SDS011;66102;48.542;-2.970;2023-06-10T04:02:23;15.07;;;8.90;;
77136;SDS011;66102;48.542;-2.970;2023-06-10T04:04:50;15.27;;;9.15;;
77136;SDS011;66102;48.542;-2.970;2023-06-10T04:07:16;15.27;;;8.68;;
77136;SDS011;66102;48.542;-2.970;2023-06-10T04:09:44;15.45;;;9.13;;
77136;SDS011;66102;48.542;-2.970;2023-06-10T04:12:11;15.63;;;9.45;;
77136;SDS011;66102;48.542;-2.970;2023-06-10T04:14:38;15.50;;;9.55;;
77136;SDS011;66102;48.542;-2.970;2023-06-10T04:17:05;16.35;;;9.23;;
77136;SDS011;66102;48.542;-2.970;2023-06-10T04:19:31;14.95;;;9.48;;
77136;SDS011;66102;48.542;-2.970;2023-06-10T04:21:58;15.63;;;9.60;;
77136;SDS011;66102;48.542;-2.970;2023-06-10T04:24:25;15.18;;;10.73;;
77136;SDS011;66102;48.542;-2.970;2023-06-10T04:26:51;17.58;;;10.35;;
77136;SDS011;66102;48.542;-2.970;2023-06-10T04:29:17;15.07;;;9.57;;
77136;SDS011;66102;48.542;-2.970;2023-06-10T04:31:43;14.63;;;9.32;;
77136;SDS011;66102;48.542;-2.970;2023-06-10T04:34:11;15.15;;;10.02;;
77136;SDS011;66102;48.542;-2.970;2023-06-10T04:36:37;16.27;;;10.43;;
77136;SDS011;66102;48.542;-2.970;2023-06-10T04:39:03;15.93;;;10.90;;
77136;SDS011;66102;48.542;-2.970;2023-06-10T04:41:32;17.77;;;10.38;;
77136;SDS011;66102;48.542;-2.970;2023-06-10T04:43:58;17.77;;;12.38;;
77136;SDS011;66102;48.542;-2.970;2023-06-10T04:46:24;17.08;;;11.52;;
77136;SDS011;66102;48.542;-2.970;2023-06-10T04:48:50;20.05;;;12.05;;
77136;SDS011;66102;48.542;-2.970;2023-06-10T04:51:17;20.35;;;12.15;;
77136;SDS011;66102;48.542;-2.970;2023-06-10T04:53:43;20.50;;;12.82;;
77136;SDS011;66102;48.542;-2.970;2023-06-10T04:56:09;21.67;;;13.57;;
77136;SDS011;66102;48.542;-2.970;2023-06-10T04:58:36;21.05;;;13.20;;
77136;SDS011;66102;48.542;-2.970;2023-06-10T05:01:02;22.02;;;13.90;;
77136;SDS011;66102;48.542;-2.970;2023-06-10T05:03:28;23.70;;;13.20;;
77136;SDS011;66102;48.542;-2.970;2023-06-10T05:05:54;24.98;;;14.65;;
77136;SDS011;66102;48.542;-2.970;2023-06-10T05:08:20;22.65;;;14.00;;
77136;SDS011;66102;48.542;-2.970;2023-06-10T05:10:46;24.02;;;14.93;;
77136;SDS011;66102;48.542;-2.970;2023-06-10T05:13:12;24.42;;;13.60;;
77136;SDS011;66102;48.542;-2.970;2023-06-10T05:15:38;26.50;;;14.40;;
77136;SDS011;66102;48.542;-2.970;2023-06-10T05:18:05;25.73;;;15.07;;
77136;SDS011;66102;48.542;-2.970;2023-06-10T05:20:31;26.05;;;14.50;;
77136;SDS011;66102;48.542;-2.970;2023-06-10T05:22:57;24.02;;;14.23;;
77136;SDS011;66102;48.542;-2.970;2023-06-10T05:25:25;24.55;;;13.55;;
77136;SDS011;66102;48.542;-2.970;2023-06-10T05:27:52;22.40;;;13.20;;
77136;SDS011;66102;48.542;-2.970;2023-06-10T05:30:18;22.92;;;12.88;;
77136;SDS011;66102;48.542;-2.970;2023-06-10T05:32:44;21.52;;;13.20;;
77136;SDS011;66102;48.542;-2.970;2023-06-10T05:35:10;26.85;;;13.93;;
77136;SDS011;66102;48.542;-2.970;2023-06-10T05:37:36;24.88;;;14.15;;
77136;SDS011;66102;48.542;-2.970;2023-06-10T05:40:02;23.15;;;13.50;;
77136;SDS011;66102;48.542;-2.970;2023-06-10T05:42:29;24.95;;;12.35;;
77136;SDS011;66102;48.542;-2.970;2023-06-10T05:44:55;22.77;;;12.95;;
77136;SDS011;66102;48.542;-2.970;2023-06-10T05:47:21;21.67;;;13.77;;
77136;SDS011;66102;48.542;-2.970;2023-06-10T05:49:47;19.80;;;12.10;;
77136;SDS011;66102;48.542;-2.970;2023-06-10T05:52:15;19.73;;;10.95;;
77136;SDS011;66102;48.542;-2.970;2023-06-10T05:54:41;23.20;;;12.60;;
77136;SDS011;66102;48.542;-2.970;2023-06-10T05:57:07;23.77;;;12.60;;
77136;SDS011;66102;48.542;-2.970;2023-06-10T05:59:33;23.65;;;12.98;;
77136;SDS011;66102;48.542;-2.970;2023-06-10T06:01:59;22.40;;;12.18;;
77136;SDS011;66102;48.542;-2.970;2023-06-10T06:04:25;21.20;;;11.55;;
77136;SDS011;66102;48.542;-2.970;2023-06-10T06:06:51;19.40;;;11.38;;
77136;SDS011;66102;48.542;-2.970;2023-06-10T06:09:17;19.58;;;11.23;;
77136;SDS011;66102;48.542;-2.970;2023-06-10T06:11:43;21.85;;;12.18;;
77136;SDS011;66102;48.542;-2.970;2023-06-10T06:14:09;21.48;;;10.85;;
77136;SDS011;66102;48.542;-2.970;2023-06-10T06:16:35;19.38;;;11.35;;
77136;SDS011;66102;48.542;-2.970;2023-06-10T06:19:01;18.58;;;11.27;;
77136;SDS011;66102;48.542;-2.970;2023-06-10T06:21:27;23.80;;;12.10;;
77136;SDS011;66102;48.542;-2.970;2023-06-10T06:23:53;18.58;;;10.52;;
77136;SDS011;66102;48.542;-2.970;2023-06-10T06:26:19;17.50;;;10.73;;
77136;SDS011;66102;48.542;-2.970;2023-06-10T06:28:45;18.80;;;11.00;;
77136;SDS011;66102;48.542;-2.970;2023-06-10T06:31:11;17.80;;;10.60;;
77136;SDS011;66102;48.542;-2.970;2023-06-10T06:33:38;20.05;;;11.43;;
77136;SDS011;66102;48.542;-2.970;2023-06-10T06:36:04;19.63;;;11.13;;
77136;SDS011;66102;48.542;-2.970;2023-06-10T06:38:30;18.52;;;10.80;;
77136;SDS011;66102;48.542;-2.970;2023-06-10T06:40:56;20.63;;;11.75;;
77136;SDS011;66102;48.542;-2.970;2023-06-10T06:43:27;19.83;;;11.75;;
77136;SDS011;66102;48.542;-2.970;2023-06-10T06:45:53;17.75;;;11.10;;
77136;SDS011;66102;48.542;-2.970;2023-06-10T06:48:19;18.58;;;11.00;;
77136;SDS011;66102;48.542;-2.970;2023-06-10T06:50:45;17.17;;;10.82;;
77136;SDS011;66102;48.542;-2.970;2023-06-10T06:53:11;19.33;;;11.32;;
77136;SDS011;66102;48.542;-2.970;2023-06-10T06:55:38;18.80;;;11.50;;
77136;SDS011;66102;48.542;-2.970;2023-06-10T06:58:04;18.42;;;10.85;;
77136;SDS011;66102;48.542;-2.970;2023-06-10T07:00:30;15.57;;;9.95;;
77136;SDS011;66102;48.542;-2.970;2023-06-10T07:02:56;14.82;;;9.07;;
77136;SDS011;66102;48.542;-2.970;2023-06-10T07:05:22;14.25;;;8.90;;
77136;SDS011;66102;48.542;-2.970;2023-06-10T07:07:50;16.40;;;9.45;;
77136;SDS011;66102;48.542;-2.970;2023-06-10T07:10:20;15.65;;;8.48;;
77136;SDS011;66102;48.542;-2.970;2023-06-10T07:12:47;14.27;;;8.82;;
77136;SDS011;66102;48.542;-2.970;2023-06-10T07:15:13;15.73;;;8.80;;
77136;SDS011;66102;48.542;-2.970;2023-06-10T07:17:39;14.32;;;8.25;;
77136;SDS011;66102;48.542;-2.970;2023-06-10T07:20:05;13.68;;;8.88;;
77136;SDS011;66102;48.542;-2.970;2023-06-10T07:22:31;16.73;;;8.60;;
77136;SDS011;66102;48.542;-2.970;2023-06-10T07:24:57;15.00;;;8.40;;
77136;SDS011;66102;48.542;-2.970;2023-06-10T07:27:24;13.63;;;8.10;;
77136;SDS011;66102;48.542;-2.970;2023-06-10T07:29:50;12.23;;;7.60;;
77136;SDS011;66102;48.542;-2.970;2023-06-10T07:32:16;13.23;;;7.80;;
77136;SDS011;66102;48.542;-2.970;2023-06-10T07:34:42;13.27;;;7.95;;
77136;SDS011;66102;48.542;-2.970;2023-06-10T07:37:08;14.95;;;8.80;;
77136;SDS011;66102;48.542;-2.970;2023-06-10T07:39:34;14.70;;;8.45;;
77136;SDS011;66102;48.542;-2.970;2023-06-10T07:42:00;60.85;;;29.70;;
77136;SDS011;66102;48.542;-2.970;2023-06-10T07:44:26;12.52;;;7.75;;
77136;SDS011;66102;48.542;-2.970;2023-06-10T07:46:52;13.25;;;7.63;;
77136;SDS011;66102;48.542;-2.970;2023-06-10T07:49:18;13.43;;;7.65;;
77136;SDS011;66102;48.542;-2.970;2023-06-10T07:51:44;12.82;;;6.95;;
77136;SDS011;66102;48.542;-2.970;2023-06-10T07:54:10;13.07;;;7.65;;
77136;SDS011;66102;48.542;-2.970;2023-06-10T07:56:37;12.82;;;6.88;;
77136;SDS011;66102;48.542;-2.970;2023-06-10T07:59:03;10.95;;;6.88;;
77136;SDS011;66102;48.542;-2.970;2023-06-10T08:01:29;15.25;;;7.38;;
77136;SDS011;66102;48.542;-2.970;2023-06-10T08:03:56;13.23;;;7.30;;
77136;SDS011;66102;48.542;-2.970;2023-06-10T08:06:22;13.15;;;6.90;;
77136;SDS011;66102;48.542;-2.970;2023-06-10T08:08:48;12.35;;;7.35;;
77136;SDS011;66102;48.542;-2.970;2023-06-10T08:11:14;11.50;;;6.90;;
77136;SDS011;66102;48.542;-2.970;2023-06-10T08:13:40;12.27;;;6.57;;
77136;SDS011;66102;48.542;-2.970;2023-06-10T08:16:06;10.02;;;5.95;;
77136;SDS011;66102;48.542;-2.970;2023-06-10T08:18:32;12.43;;;6.50;;
77136;SDS011;66102;48.542;-2.970;2023-06-10T08:20:59;9.90;;;5.95;;
77136;SDS011;66102;48.542;-2.970;2023-06-10T08:23:25;10.57;;;6.30;;
77136;SDS011;66102;48.542;-2.970;2023-06-10T08:25:51;11.77;;;6.00;;
77136;SDS011;66102;48.542;-2.970;2023-06-10T08:28:17;9.15;;;5.18;;
77136;SDS011;66102;48.542;-2.970;2023-06-10T08:30:43;9.90;;;5.70;;
77136;SDS011;66102;48.542;-2.970;2023-06-10T08:33:10;11.15;;;6.07;;
77136;SDS011;66102;48.542;-2.970;2023-06-10T08:35:36;10.95;;;6.13;;
77136;SDS011;66102;48.542;-2.970;2023-06-10T08:38:02;9.98;;;6.05;;
77136;SDS011;66102;48.542;-2.970;2023-06-10T08:40:28;11.27;;;5.60;;
77136;SDS011;66102;48.542;-2.970;2023-06-10T08:43:02;12.25;;;6.43;;
77136;SDS011;66102;48.542;-2.970;2023-06-10T08:45:32;9.70;;;5.75;;
77136;SDS011;66102;48.542;-2.970;2023-06-10T08:48:00;10.20;;;5.85;;
77136;SDS011;66102;48.542;-2.970;2023-06-10T08:50:31;10.75;;;6.10;;
77136;SDS011;66102;48.542;-2.970;2023-06-10T08:52:59;10.65;;;5.57;;
77136;SDS011;66102;48.542;-2.970;2023-06-10T08:55:27;10.70;;;5.70;;
77136;SDS011;66102;48.542;-2.970;2023-06-10T08:57:55;11.55;;;6.13;;
77136;SDS011;66102;48.542;-2.970;2023-06-10T09:00:21;12.00;;;6.90;;
77136;SDS011;66102;48.542;-2.970;2023-06-10T09:02:48;10.27;;;6.10;;
77136;SDS011;66102;48.542;-2.970;2023-06-10T09:05:14;10.02;;;5.93;;
77136;SDS011;66102;48.542;-2.970;2023-06-10T09:07:41;10.77;;;6.40;;
77136;SDS011;66102;48.542;-2.970;2023-06-10T09:10:08;9.13;;;5.55;;
77136;SDS011;66102;48.542;-2.970;2023-06-10T09:12:34;11.55;;;6.55;;
77136;SDS011;66102;48.542;-2.970;2023-06-10T09:15:01;9.90;;;5.95;;
77136;SDS011;66102;48.542;-2.970;2023-06-10T09:17:27;10.07;;;6.18;;
77136;SDS011;66102;48.542;-2.970;2023-06-10T09:19:54;11.57;;;6.13;;
77136;SDS011;66102;48.542;-2.970;2023-06-10T09:22:23;12.15;;;6.13;;
77136;SDS011;66102;48.542;-2.970;2023-06-10T09:27:17;10.80;;;6.13;;
77136;SDS011;66102;48.542;-2.970;2023-06-10T09:29:53;9.70;;;6.00;;
77136;SDS011;66102;48.542;-2.970;2023-06-10T09:32:20;10.30;;;6.18;;
77136;SDS011;66102;48.542;-2.970;2023-06-10T09:34:46;11.75;;;6.63;;
77136;SDS011;66102;48.542;-2.970;2023-06-10T09:37:13;10.90;;;6.00;;
77136;SDS011;66102;48.542;-2.970;2023-06-10T09:39:45;12.32;;;6.53;;
77136;SDS011;66102;48.542;-2.970;2023-06-10T09:42:26;11.70;;;6.28;;
77136;SDS011;66102;48.542;-2.970;2023-06-10T09:44:52;12.27;;;6.30;;
77136;SDS011;66102;48.542;-2.970;2023-06-10T09:47:21;11.13;;;6.28;;
77136;SDS011;66102;48.542;-2.970;2023-06-10T09:49:51;12.07;;;6.38;;
77136;SDS011;66102;48.542;-2.970;2023-06-10T09:52:23;10.90;;;6.07;;
77136;SDS011;66102;48.542;-2.970;2023-06-10T09:54:53;10.60;;;5.97;;
77136;SDS011;66102;48.542;-2.970;2023-06-10T09:57:20;10.10;;;5.57;;
77136;SDS011;66102;48.542;-2.970;2023-06-10T09:59:47;10.13;;;6.00;;
77136;SDS011;66102;48.542;-2.970;2023-06-10T10:02:16;10.48;;;5.65;;
77136;SDS011;66102;48.542;-2.970;2023-06-10T10:04:43;11.30;;;5.78;;
77136;SDS011;66102;48.542;-2.970;2023-06-10T10:07:09;9.65;;;5.07;;
77136;SDS011;66102;48.542;-2.970;2023-06-10T10:09:36;9.73;;;5.00;;
77136;SDS011;66102;48.542;-2.970;2023-06-10T10:12:03;11.75;;;5.40;;
77136;SDS011;66102;48.542;-2.970;2023-06-10T10:14:30;9.15;;;4.72;;
77136;SDS011;66102;48.542;-2.970;2023-06-10T10:16:57;8.63;;;4.35;;
77136;SDS011;66102;48.542;-2.970;2023-06-10T10:19:27;10.43;;;4.20;;
77136;SDS011;66102;48.542;-2.970;2023-06-10T10:21:56;9.23;;;3.80;;
77136;SDS011;66102;48.542;-2.970;2023-06-10T10:24:26;7.63;;;4.03;;
77136;SDS011;66102;48.542;-2.970;2023-06-10T10:26:55;9.20;;;3.67;;
77136;SDS011;66102;48.542;-2.970;2023-06-10T10:31:50;8.20;;;4.05;;
77136;SDS011;66102;48.542;-2.970;2023-06-10T10:34:19;8.18;;;4.10;;
77136;SDS011;66102;48.542;-2.970;2023-06-10T10:36:47;8.15;;;4.25;;
77136;SDS011;66102;48.542;-2.970;2023-06-10T10:39:14;8.52;;;4.57;;
77136;SDS011;66102;48.542;-2.970;2023-06-10T10:41:40;9.27;;;4.47;;
77136;SDS011;66102;48.542;-2.970;2023-06-10T10:44:07;9.00;;;3.67;;
77136;SDS011;66102;48.542;-2.970;2023-06-10T10:46:43;9.32;;;3.70;;
77136;SDS011;66102;48.542;-2.970;2023-06-10T10:49:09;9.82;;;4.30;;
77136;SDS011;66102;48.542;-2.970;2023-06-10T10:51:36;9.55;;;4.50;;
77136;SDS011;66102;48.542;-2.970;2023-06-10T10:54:12;8.57;;;4.60;;
77136;SDS011;66102;48.542;-2.970;2023-06-10T10:56:38;7.95;;;3.88;;
77136;SDS011;66102;48.542;-2.970;2023-06-10T10:59:05;9.32;;;3.75;;
77136;SDS011;66102;48.542;-2.970;2023-06-10T11:01:41;7.55;;;3.53;;
77136;SDS011;66102;48.542;-2.970;2023-06-10T11:04:08;7.68;;;3.33;;
77136;SDS011;66102;48.542;-2.970;2023-06-10T11:06:34;7.45;;;3.30;;
77136;SDS011;66102;48.542;-2.970;2023-06-10T11:09:00;9.73;;;3.72;;
77136;SDS011;66102;48.542;-2.970;2023-06-10T11:11:27;7.38;;;3.45;;
77136;SDS011;66102;48.542;-2.970;2023-06-10T11:16:41;8.20;;;3.50;;
77136;SDS011;66102;48.542;-2.970;2023-06-10T11:19:08;7.88;;;3.70;;
77136;SDS011;66102;48.542;-2.970;2023-06-10T11:22:16;6.35;;;3.15;;
77136;SDS011;66102;48.542;-2.970;2023-06-10T11:24:26;5.97;;;2.97;;
77136;SDS011;66102;48.542;-2.970;2023-06-10T11:26:52;7.47;;;3.45;;
77136;SDS011;66102;48.542;-2.970;2023-06-10T11:29:18;8.05;;;3.28;;
77136;SDS011;66102;48.542;-2.970;2023-06-10T11:31:48;7.07;;;3.17;;
77136;SDS011;66102;48.542;-2.970;2023-06-10T11:34:15;6.72;;;3.20;;
77136;SDS011;66102;48.542;-2.970;2023-06-10T11:36:41;8.65;;;3.30;;
77136;SDS011;66102;48.542;-2.970;2023-06-10T11:39:10;5.72;;;2.92;;
77136;SDS011;66102;48.542;-2.970;2023-06-10T11:41:37;6.97;;;2.88;;
77136;SDS011;66102;48.542;-2.970;2023-06-10T11:46:29;7.65;;;2.95;;
77136;SDS011;66102;48.542;-2.970;2023-06-10T11:48:56;7.47;;;3.08;;
77136;SDS011;66102;48.542;-2.970;2023-06-10T11:51:26;6.35;;;2.58;;
77136;SDS011;66102;48.542;-2.970;2023-06-10T11:53:52;6.75;;;3.38;;
77136;SDS011;66102;48.542;-2.970;2023-06-10T11:56:25;6.80;;;3.20;;
77136;SDS011;66102;48.542;-2.970;2023-06-10T11:58:58;7.45;;;2.78;;
77136;SDS011;66102;48.542;-2.970;2023-06-10T12:01:29;6.95;;;3.35;;
77136;SDS011;66102;48.542;-2.970;2023-06-10T12:04:00;6.68;;;3.05;;
77136;SDS011;66102;48.542;-2.970;2023-06-10T12:06:27;7.10;;;3.40;;
77136;SDS011;66102;48.542;-2.970;2023-06-10T12:08:53;7.68;;;3.20;;
77136;SDS011;66102;48.542;-2.970;2023-06-10T12:11:20;6.35;;;3.03;;
77136;SDS011;66102;48.542;-2.970;2023-06-10T12:13:48;7.65;;;3.45;;
77136;SDS011;66102;48.542;-2.970;2023-06-10T12:16:16;6.68;;;3.55;;
77136;SDS011;66102;48.542;-2.970;2023-06-10T12:18:46;7.82;;;3.92;;
77136;SDS011;66102;48.542;-2.970;2023-06-10T12:21:19;10.57;;;3.72;;
77136;SDS011;66102;48.542;-2.970;2023-06-10T12:26:40;7.55;;;3.67;;
77136;SDS011;66102;48.542;-2.970;2023-06-10T12:31:53;7.80;;;3.72;;
77136;SDS011;66102;48.542;-2.970;2023-06-10T12:34:19;8.60;;;3.65;;
77136;SDS011;66102;48.542;-2.970;2023-06-10T12:36:49;9.52;;;3.67;;
77136;SDS011;66102;48.542;-2.970;2023-06-10T12:39:15;10.65;;;4.18;;
77136;SDS011;66102;48.542;-2.970;2023-06-10T12:41:46;10.13;;;5.10;;
77136;SDS011;66102;48.542;-2.970;2023-06-10T12:44:13;8.70;;;4.78;;
77136;SDS011;66102;48.542;-2.970;2023-06-10T12:46:39;12.75;;;6.50;;
77136;SDS011;66102;48.542;-2.970;2023-06-10T12:49:05;10.65;;;5.57;;
77136;SDS011;66102;48.542;-2.970;2023-06-10T12:51:31;9.50;;;5.80;;
77136;SDS011;66102;48.542;-2.970;2023-06-10T12:53:59;11.40;;;5.47;;
77136;SDS011;66102;48.542;-2.970;2023-06-10T12:56:25;10.00;;;5.72;;
77136;SDS011;66102;48.542;-2.970;2023-06-10T12:58:51;13.05;;;5.55;;
77136;SDS011;66102;48.542;-2.970;2023-06-10T13:01:17;11.02;;;5.18;;
77136;SDS011;66102;48.542;-2.970;2023-06-10T13:03:43;10.88;;;5.30;;
77136;SDS011;66102;48.542;-2.970;2023-06-10T13:06:09;10.90;;;5.68;;
77136;SDS011;66102;48.542;-2.970;2023-06-10T13:08:35;11.80;;;5.50;;
77136;SDS011;66102;48.542;-2.970;2023-06-10T13:11:01;16.98;;;7.95;;
77136;SDS011;66102;48.542;-2.970;2023-06-10T13:13:27;13.88;;;7.22;;
77136;SDS011;66102;48.542;-2.970;2023-06-10T13:15:53;32.10;;;8.35;;
77136;SDS011;66102;48.542;-2.970;2023-06-10T13:18:19;13.00;;;7.18;;
77136;SDS011;66102;48.542;-2.970;2023-06-10T13:20:46;12.77;;;7.07;;
77136;SDS011;66102;48.542;-2.970;2023-06-10T13:23:12;14.63;;;7.20;;
77136;SDS011;66102;48.542;-2.970;2023-06-10T13:25:38;13.90;;;7.55;;
77136;SDS011;66102;48.542;-2.970;2023-06-10T13:28:05;16.65;;;7.72;;
77136;SDS011;66102;48.542;-2.970;2023-06-10T13:30:32;16.05;;;7.38;;
77136;SDS011;66102;48.542;-2.970;2023-06-10T13:32:58;12.82;;;6.97;;
77136;SDS011;66102;48.542;-2.970;2023-06-10T13:35:25;12.57;;;7.28;;
77136;SDS011;66102;48.542;-2.970;2023-06-10T13:37:51;14.80;;;8.20;;
77136;SDS011;66102;48.542;-2.970;2023-06-10T13:40:17;15.75;;;7.70;;
77136;SDS011;66102;48.542;-2.970;2023-06-10T13:42:44;14.65;;;6.78;;
77136;SDS011;66102;48.542;-2.970;2023-06-10T13:45:15;15.32;;;7.32;;
77136;SDS011;66102;48.542;-2.970;2023-06-10T13:47:42;21.17;;;7.20;;
77136;SDS011;66102;48.542;-2.970;2023-06-10T13:50:08;14.55;;;6.63;;
77136;SDS011;66102;48.542;-2.970;2023-06-10T13:52:34;11.70;;;6.68;;
77136;SDS011;66102;48.542;-2.970;2023-06-10T13:55:00;19.25;;;7.15;;
77136;SDS011;66102;48.542;-2.970;2023-06-10T13:57:26;15.82;;;7.47;;
77136;SDS011;66102;48.542;-2.970;2023-06-10T13:59:52;13.27;;;7.38;;
77136;SDS011;66102;48.542;-2.970;2023-06-10T14:02:18;12.55;;;6.43;;
77136;SDS011;66102;48.542;-2.970;2023-06-10T14:04:45;14.07;;;6.68;;
77136;SDS011;66102;48.542;-2.970;2023-06-10T14:07:12;13.45;;;6.43;;
77136;SDS011;66102;48.542;-2.970;2023-06-10T14:09:38;15.70;;;6.05;;
77136;SDS011;66102;48.542;-2.970;2023-06-10T14:12:04;17.05;;;6.85;;
77136;SDS011;66102;48.542;-2.970;2023-06-10T14:14:30;13.90;;;6.35;;
77136;SDS011;66102;48.542;-2.970;2023-06-10T14:16:58;12.48;;;6.35;;
77136;SDS011;66102;48.542;-2.970;2023-06-10T14:19:24;10.57;;;6.13;;
77136;SDS011;66102;48.542;-2.970;2023-06-10T14:21:50;12.70;;;6.43;;
77136;SDS011;66102;48.542;-2.970;2023-06-10T14:24:18;12.40;;;6.88;;
77136;SDS011;66102;48.542;-2.970;2023-06-10T14:26:44;12.80;;;6.70;;
77136;SDS011;66102;48.542;-2.970;2023-06-10T14:29:10;12.52;;;6.57;;
77136;SDS011;66102;48.542;-2.970;2023-06-10T14:31:39;12.95;;;6.97;;
77136;SDS011;66102;48.542;-2.970;2023-06-10T14:34:05;13.60;;;7.03;;
77136;SDS011;66102;48.542;-2.970;2023-06-10T14:36:33;12.20;;;6.90;;
77136;SDS011;66102;48.542;-2.970;2023-06-10T14:38:59;12.02;;;5.60;;